Time;durP1;ratioP1;P1;durP2;ratioP2;P2;SDS_P1;SDS_P2;PMS_P1;PMS_P2;Temp;Humidity;BMP_temperature;BMP_pressure;BME280_temperature;BME280_humidity;BME280_pressure;Samples;Min_cycle;Max_cycle;Signal;HPM_P1;HPM_P2
2023/10/08 00:00:46;;;;;;;2.47;0.90;;;13.10;99.90;;;;;;5092602;28;20024;-81
2023/10/08 00:03:20;;;;;;;12.88;1.60;;;13.00;99.90;;;;;;5101089;28;20044;-81
2023/10/08 00:05:46;;;;;;;3.50;0.82;;;13.00;99.90;;;;;;5100929;28;20058;-82
2023/10/08 00:08:19;;;;;;;1.60;0.70;;;13.00;99.90;;;;;;5071304;28;20051;-82
2023/10/08 00:10:45;;;;;;;3.53;1.08;;;13.00;99.90;;;;;;5102286;28;20059;-81
2023/10/08 00:13:17;;;;;;;3.10;0.82;;;13.10;99.90;;;;;;5101478;28;20044;-82
2023/10/08 00:15:56;;;;;;;3.53;0.90;;;12.90;99.90;;;;;;5104854;28;20428;-83
2023/10/08 00:19:08;;;;;;;3.40;0.90;;;13.10;99.90;;;;;;5072915;28;20052;-83
2023/10/08 00:21:40;;;;;;;2.92;1.05;;;12.90;99.90;;;;;;5105418;28;20097;-83
2023/10/08 00:24:07;;;;;;;3.20;1.13;;;12.40;99.90;;;;;;5097571;28;20051;-83
2023/10/08 00:26:41;;;;;;;6.78;1.10;;;12.90;99.90;;;;;;5115157;28;20051;-83
2023/10/08 00:29:21;;;;;;;1.58;0.80;;;13.20;99.90;;;;;;5093617;28;20056;-83
2023/10/08 00:31:49;;;;;;;4.43;0.82;;;12.90;99.90;;;;;;5106035;28;20047;-81
2023/10/08 00:34:19;;;;;;;3.80;1.02;;;12.90;99.90;;;;;;5113766;28;20032;-82
2023/10/08 00:36:49;;;;;;;3.28;0.90;;;13.00;99.90;;;;;;5096892;28;20466;-81
2023/10/08 00:39:23;;;;;;;3.13;1.20;;;12.90;99.90;;;;;;5123747;28;20012;-81
2023/10/08 00:41:50;;;;;;;3.05;1.00;;;13.00;99.90;;;;;;5109475;28;20108;-80
2023/10/08 00:44:23;;;;;;;2.25;0.98;;;13.00;99.90;;;;;;5107872;28;20104;-79
2023/10/08 00:46:49;;;;;;;2.30;1.00;;;13.00;99.90;;;;;;5115436;28;20076;-80
2023/10/08 00:49:25;;;;;;;1.98;1.17;;;13.00;99.90;;;;;;5116000;28;20036;-80
2023/10/08 00:54:48;;;;;;;2.40;1.10;;;13.00;99.90;;;;;;5119626;28;20048;-80
2023/10/08 00:57:21;;;;;;;4.90;1.35;;;13.00;99.90;;;;;;5117734;28;20048;-79
2023/10/08 00:59:52;;;;;;;3.22;1.10;;;13.00;99.90;;;;;;5113516;28;20044;-81
2023/10/08 01:02:26;;;;;;;3.50;1.13;;;13.00;99.90;;;;;;5113464;28;20041;-80
2023/10/08 01:04:54;;;;;;;2.40;1.40;;;13.00;99.90;;;;;;5097597;28;20439;-81
2023/10/08 01:07:27;;;;;;;4.75;1.50;;;13.00;99.90;;;;;;5095457;28;20028;-81
2023/10/08 01:09:59;;;;;;;2.90;1.15;;;13.00;99.90;;;;;;5123648;28;20044;-82
2023/10/08 01:12:33;;;;;;;2.05;1.00;;;13.00;99.90;;;;;;5096674;28;20037;-83
2023/10/08 01:17:50;;;;;;;4.63;1.35;;;13.10;99.90;;;;;;5108101;28;20048;-82
2023/10/08 01:21:07;;;;;;;5.50;1.30;;;13.00;99.90;;;;;;5115071;28;20094;-82
2023/10/08 01:23:19;;;;;;;6.35;1.42;;;13.50;99.90;;;;;;5090586;28;20550;-82
2023/10/08 01:25:50;;;;;;;9.23;1.73;;;13.20;99.90;;;;;;5091918;28;20028;-82
2023/10/08 01:28:26;;;;;;;4.20;1.60;;;13.10;99.90;;;;;;5087382;28;20047;-83
2023/10/08 01:30:59;;;;;;;7.63;1.70;;;13.70;99.90;;;;;;5112786;28;20055;-82
2023/10/08 01:33:32;;;;;;;5.90;1.02;;;13.10;99.90;;;;;;5105420;28;20096;-82
2023/10/08 01:36:02;;;;;;;3.65;1.45;;;13.00;99.90;;;;;;5098361;28;20043;-82
2023/10/08 01:38:29;;;;;;;11.80;1.52;;;13.60;99.90;;;;;;5096675;28;20044;-82
2023/10/08 01:40:56;;;;;;;10.23;1.60;;;13.00;99.90;;;;;;5101827;28;20076;-83
2023/10/08 01:43:22;;;;;;;1.92;1.00;;;13.10;99.90;;;;;;5095286;28;20044;-82
2023/10/08 01:45:52;;;;;;;6.82;1.40;;;13.10;99.90;;;;;;5093031;28;20036;-84
2023/10/08 01:48:27;;;;;;;5.60;1.50;;;13.10;99.90;;;;;;5107005;28;20095;-82
2023/10/08 01:51:01;;;;;;;4.68;1.40;;;13.10;99.90;;;;;;5106532;28;20040;-83
2023/10/08 01:53:27;;;;;;;8.07;1.70;;;13.20;99.90;;;;;;5106779;28;20071;-83
2023/10/08 01:55:53;;;;;;;5.47;1.35;;;13.10;99.90;;;;;;5107832;28;20044;-83
2023/10/08 01:58:20;;;;;;;4.55;1.23;;;13.10;99.90;;;;;;5110623;28;20043;-84
2023/10/08 02:00:47;;;;;;;4.55;1.10;;;13.30;99.90;;;;;;5100724;28;20040;-84
2023/10/08 02:03:16;;;;;;;6.00;1.58;;;13.20;99.90;;;;;;5095068;28;20039;-83
2023/10/08 02:05:53;;;;;;;4.57;1.33;;;13.20;99.90;;;;;;5110738;28;20044;-83
2023/10/08 02:08:20;;;;;;;11.07;1.40;;;13.10;99.90;;;;;;5111103;28;20052;-82
2023/10/08 02:10:47;;;;;;;5.43;1.58;;;13.10;99.90;;;;;;5095704;28;20093;-83
2023/10/08 02:13:14;;;;;;;2.40;1.10;;;13.10;99.90;;;;;;5102747;28;20068;-84
2023/10/08 02:15:53;;;;;;;6.28;1.30;;;13.30;99.90;;;;;;5101646;28;20397;-84
2023/10/08 02:18:19;;;;;;;;;;;13.20;99.90;;;;;;5097135;28;20070;-84
2023/10/08 02:20:45;;;;;;;4.65;1.30;;;13.10;99.90;;;;;;5098366;28;19920;-85
2023/10/08 02:23:11;;;;;;;4.15;1.40;;;13.10;99.90;;;;;;5105361;28;20096;-83
2023/10/08 02:25:39;;;;;;;5.72;1.45;;;13.10;99.90;;;;;;5096255;28;20039;-83
2023/10/08 02:28:08;;;;;;;;;;;13.10;99.90;;;;;;5107662;28;20039;-83
2023/10/08 02:30:34;;;;;;;4.93;1.33;;;13.10;99.90;;;;;;5099473;28;19952;-84
2023/10/08 02:33:00;;;;;;;6.57;1.50;;;13.10;99.90;;;;;;5104671;28;20060;-84
2023/10/08 02:35:27;;;;;;;5.50;1.60;;;13.10;99.90;;;;;;5122380;28;20039;-84
2023/10/08 02:37:54;;;;;;;13.32;1.52;;;13.10;99.90;;;;;;5123506;28;20040;-83
2023/10/08 02:40:26;;;;;;;3.75;1.60;;;13.10;99.90;;;;;;5118923;28;20028;-83
2023/10/08 02:43:00;;;;;;;8.15;1.67;;;13.10;99.90;;;;;;5104013;28;20033;-84
2023/10/08 02:45:27;;;;;;;7.35;1.83;;;13.10;99.90;;;;;;5109763;28;20027;-83
2023/10/08 02:47:54;;;;;;;4.80;1.38;;;13.10;99.90;;;;;;5123101;28;20035;-82
2023/10/08 02:50:22;;;;;;;6.45;1.75;;;13.10;99.90;;;;;;5081489;28;20067;-84
2023/10/08 02:52:49;;;;;;;4.88;1.30;;;13.10;99.90;;;;;;5081290;28;20024;-82
2023/10/08 02:55:28;;;;;;;6.82;1.45;;;13.10;99.90;;;;;;5098843;28;20055;-83
2023/10/08 02:57:54;;;;;;;8.02;2.00;;;13.10;99.90;;;;;;5095149;28;20080;-85
2023/10/08 03:00:20;;;;;;;8.35;1.80;;;13.80;99.90;;;;;;5094334;28;20059;-83
2023/10/08 03:02:46;;;;;;;7.78;1.60;;;13.10;99.90;;;;;;5113930;28;20048;-83
2023/10/08 03:05:17;;;;;;;6.45;1.67;;;13.10;99.90;;;;;;5114323;28;20373;-84
2023/10/08 03:07:43;;;;;;;6.38;1.88;;;13.10;99.90;;;;;;5075885;28;20162;-84
2023/10/08 03:10:18;;;;;;;12.95;2.15;;;13.10;99.90;;;;;;5109420;28;20505;-84
2023/10/08 03:12:47;;;;;;;12.73;1.70;;;13.10;99.90;;;;;;5096448;28;20036;-83
2023/10/08 03:18:10;;;;;;;5.20;1.63;;;13.00;99.90;;;;;;5063041;28;20056;-84
2023/10/08 03:20:41;;;;;;;5.80;1.67;;;13.00;99.90;;;;;;5114518;28;20039;-84
2023/10/08 03:23:23;;;;;;;5.15;1.60;;;13.00;99.90;;;;;;5107825;27;20068;-83
2023/10/08 03:26:10;;;;;;;7.10;1.50;;;13.00;99.90;;;;;;5101271;28;20052;-83
2023/10/08 03:28:37;;;;;;;4.00;1.70;;;13.10;99.90;;;;;;5103887;28;20036;-83
2023/10/08 03:31:14;;;;;;;5.07;1.60;;;13.00;99.90;;;;;;5092057;28;20062;-84
2023/10/08 03:33:40;;;;;;;15.43;1.45;;;13.00;99.90;;;;;;5097491;28;20044;-84
2023/10/08 03:36:33;;;;;;;8.68;1.50;;;13.00;99.90;;;;;;5113909;28;20051;-83
2023/10/08 03:39:09;;;;;;;8.65;1.50;;;13.00;99.90;;;;;;5088689;28;20048;-84
2023/10/08 03:41:39;;;;;;;6.88;1.52;;;13.00;99.90;;;;;;5086618;28;20044;-84
2023/10/08 03:44:13;;;;;;;7.72;1.60;;;13.00;99.90;;;;;;5095106;28;20484;-84
2023/10/08 03:46:42;;;;;;;6.20;1.45;;;13.10;99.90;;;;;;5091302;28;20040;-84
2023/10/08 03:51:42;;;;;;;7.45;1.95;;;13.10;99.90;;;;;;5088324;28;20047;-83
2023/10/08 03:56:45;;;;;;;8.85;2.00;;;12.20;99.90;;;;;;5099341;28;20052;-84
2023/10/08 03:59:29;;;;;;;7.63;1.85;;;13.10;99.90;;;;;;5106466;28;20055;-84
2023/10/08 04:01:59;;;;;;;8.27;1.73;;;13.10;99.90;;;;;;5096108;28;20383;-83
2023/10/08 04:04:48;;;;;;;6.72;1.90;;;13.10;99.90;;;;;;5078288;28;20040;-85
2023/10/08 04:07:28;;;;;;;10.10;1.90;;;13.10;99.90;;;;;;5101024;28;20044;-83
2023/10/08 04:12:43;;;;;;;7.43;1.83;;;13.10;99.90;;;;;;5096753;28;20538;-84
2023/10/08 04:15:12;;;;;;;7.30;2.00;;;13.20;99.90;;;;;;5087020;28;20100;-84
2023/10/08 04:17:44;;;;;;;8.32;1.70;;;13.20;99.90;;;;;;5068951;28;20045;-83
2023/10/08 04:23:04;;;;;;;7.18;2.30;;;13.20;99.90;;;;;;5086941;28;20071;-84
2023/10/08 04:25:31;;;;;;;15.45;2.90;;;13.20;99.90;;;;;;5090239;28;20054;-84
2023/10/08 04:27:58;;;;;;;6.13;2.17;;;13.20;99.90;;;;;;5108057;28;20044;-84
2023/10/08 04:30:33;;;;;;;10.20;2.33;;;13.00;99.90;;;;;;5103383;28;20065;-84
2023/10/08 04:33:06;;;;;;;5.53;2.00;;;13.20;99.90;;;;;;5114641;28;20040;-84
2023/10/08 04:35:36;;;;;;;8.98;2.33;;;13.20;99.90;;;;;;5087272;28;20040;-83
2023/10/08 04:38:08;;;;;;;5.93;2.03;;;13.20;99.90;;;;;;5096909;28;20116;-84
2023/10/08 04:40:41;;;;;;;6.40;2.42;;;13.20;99.90;;;;;;5084463;28;20028;-84
2023/10/08 04:43:10;;;;;;;8.30;2.55;;;13.20;99.90;;;;;;5105661;28;20032;-83
2023/10/08 04:45:37;;;;;;;7.43;2.20;;;13.20;99.90;;;;;;5084638;28;20044;-85
2023/10/08 04:48:09;;;;;;;8.82;2.28;;;13.20;99.90;;;;;;5102653;28;20154;-83
2023/10/08 04:50:37;;;;;;;10.15;2.72;;;13.30;99.90;;;;;;5107641;28;20044;-83
2023/10/08 04:53:10;;;;;;;13.10;2.40;;;13.20;99.90;;;;;;5096765;28;20059;-83
2023/10/08 04:55:41;;;;;;;16.02;2.90;;;13.30;99.90;;;;;;5106976;28;20044;-83
2023/10/08 04:58:19;;;;;;;9.75;2.30;;;13.30;99.90;;;;;;5102039;28;20048;-83
2023/10/08 05:00:53;;;;;;;15.48;2.67;;;13.20;99.90;;;;;;5082030;28;20058;-84
2023/10/08 05:03:22;;;;;;;11.30;2.47;;;13.10;99.90;;;;;;5082211;28;20441;-84
2023/10/08 05:06:08;;;;;;;12.50;2.55;;;13.10;99.90;;;;;;5103974;28;20047;-83
2023/10/08 05:08:47;;;;;;;6.68;1.70;;;13.10;99.90;;;;;;5067326;28;20048;-84
2023/10/08 05:14:27;;;;;;;6.43;1.70;;;13.10;99.90;;;;;;5103282;28;20055;-83
2023/10/08 05:17:03;;;;;;;7.95;1.90;;;13.00;99.90;;;;;;5089498;28;20060;-83
2023/10/08 05:30:28;;;;;;;10.48;2.45;;;12.90;99.90;;;;;;5086327;28;20805;-84
2023/10/08 05:48:50;;;;;;;10.57;2.33;;;12.90;99.90;;;;;;5087996;28;20460;-84
2023/10/08 05:51:43;;;;;;;9.85;2.30;;;13.00;99.90;;;;;;5087905;28;20425;-84
2023/10/08 05:54:24;;;;;;;12.23;2.55;;;12.90;99.90;;;;;;5095131;28;20090;-84
2023/10/08 05:59:39;;;;;;;12.50;2.40;;;12.90;99.90;;;;;;5107963;28;20051;-85
2023/10/08 06:13:45;;;;;;;12.90;2.60;;;12.90;99.90;;;;;;5091873;28;20043;-84
2023/10/08 06:16:13;;;;;;;13.82;2.95;;;12.90;99.90;;;;;;5100390;28;20500;-85
2023/10/08 06:18:39;;;;;;;8.63;1.88;;;13.40;99.90;;;;;;5100452;28;20052;-84
2023/10/08 06:21:10;;;;;;;8.15;1.90;;;12.80;99.90;;;;;;5098672;28;20040;-83
2023/10/08 06:23:37;;;;;;;11.43;2.50;;;12.90;99.90;;;;;;5095102;28;20044;-85
2023/10/08 06:28:35;;;;;;;12.13;2.42;;;12.80;99.90;;;;;;5083035;28;20187;-84
2023/10/08 06:31:06;;;;;;;13.55;2.58;;;12.90;99.90;;;;;;5104000;28;20052;-84
2023/10/08 06:33:33;;;;;;;6.32;2.13;;;12.90;99.90;;;;;;5090689;28;20055;-84
2023/10/08 06:36:13;;;;;;;11.32;2.30;;;12.90;99.90;;;;;;5116710;28;20119;-84
2023/10/08 06:38:49;;;;;;;10.85;2.20;;;12.90;99.90;;;;;;5106658;28;20039;-84
2023/10/08 06:41:17;;;;;;;9.23;2.30;;;13.00;99.90;;;;;;5102270;28;20126;-83
2023/10/08 06:43:49;;;;;;;14.45;2.38;;;13.00;99.90;;;;;;5096331;28;20067;-84
2023/10/08 06:46:18;;;;;;;9.07;2.28;;;13.00;99.90;;;;;;5072792;28;20103;-85
2023/10/08 06:48:45;;;;;;;12.73;3.15;;;13.10;99.90;;;;;;5104251;28;20102;-83
2023/10/08 06:51:17;;;;;;;17.90;2.70;;;13.10;99.90;;;;;;5114658;28;20066;-83
2023/10/08 06:53:48;;;;;;;7.43;2.10;;;13.00;99.90;;;;;;5095823;28;20074;-83
2023/10/08 06:56:19;;;;;;;7.57;1.92;;;13.10;99.90;;;;;;5101972;28;20034;-82
2023/10/08 06:58:48;;;;;;;14.65;2.50;;;13.10;99.90;;;;;;5112883;28;20071;-82
2023/10/08 07:01:20;;;;;;;8.48;2.33;;;13.20;99.90;;;;;;5114730;28;20058;-83
2023/10/08 07:03:49;;;;;;;10.57;2.17;;;13.10;99.90;;;;;;5131731;28;20031;-82
2023/10/08 07:06:25;;;;;;;8.50;2.13;;;13.10;99.90;;;;;;5139120;28;20047;-84
2023/10/08 07:08:55;;;;;;;13.18;2.45;;;13.20;99.90;;;;;;5137106;28;20099;-83
2023/10/08 07:11:21;;;;;;;9.35;2.15;;;13.20;99.90;;;;;;5137074;28;20062;-82
2023/10/08 07:13:48;;;;;;;10.38;2.58;;;13.20;99.90;;;;;;5120528;28;20054;-82
2023/10/08 07:16:17;;;;;;;10.80;2.20;;;13.30;99.90;;;;;;5137327;28;20027;-82
2023/10/08 07:18:51;;;;;;;7.35;1.75;;;13.90;99.90;;;;;;5111685;28;20058;-83
2023/10/08 07:21:17;;;;;;;13.57;2.20;;;13.30;99.90;;;;;;5094939;28;20485;-83
2023/10/08 07:24:04;;;;;;;12.60;2.33;;;13.70;99.90;;;;;;5102087;28;20036;-84
2023/10/08 07:26:46;;;;;;;8.63;2.00;;;13.50;99.90;;;;;;5130814;27;20052;-84
2023/10/08 07:29:16;;;;;;;7.60;2.35;;;13.50;99.90;;;;;;5096485;28;20048;-83
2023/10/08 07:31:52;;;;;;;8.43;1.95;;;13.50;99.90;;;;;;5104189;28;20122;-82
2023/10/08 07:34:25;;;;;;;8.85;2.10;;;13.50;99.90;;;;;;5098814;28;20090;-82
2023/10/08 07:36:52;;;;;;;9.48;2.50;;;13.50;99.90;;;;;;5082846;28;20048;-84
2023/10/08 07:41:55;;;;;;;10.60;2.20;;;13.50;99.90;;;;;;5105219;28;20329;-82
2023/10/08 07:44:21;;;;;;;7.78;2.17;;;13.50;99.90;;;;;;5101461;28;20231;-81
2023/10/08 07:46:49;;;;;;;8.60;2.30;;;13.60;99.90;;;;;;5082368;28;20048;-83
2023/10/08 07:49:15;;;;;;;9.75;2.22;;;13.60;99.90;;;;;;5080189;28;20056;-83
2023/10/08 07:51:41;;;;;;;4.20;1.70;;;13.60;99.90;;;;;;5087223;28;20069;-83
2023/10/08 07:54:09;;;;;;;10.45;2.00;;;13.50;99.90;;;;;;5093992;28;20047;-82
2023/10/08 07:56:37;;;;;;;10.32;2.08;;;13.60;99.90;;;;;;5097170;28;20059;-85
2023/10/08 07:59:08;;;;;;;9.40;2.70;;;13.50;99.90;;;;;;5117695;28;20066;-82
2023/10/08 08:01:34;;;;;;;16.60;2.78;;;13.60;99.90;;;;;;5086117;28;20036;-84
2023/10/08 08:04:00;;;;;;;10.35;3.08;;;13.60;99.90;;;;;;5101673;28;20078;-82
2023/10/08 08:06:26;;;;;;;9.38;2.17;;;13.60;99.90;;;;;;5090703;28;20131;-82
2023/10/08 08:08:51;;;;;;;11.85;2.17;;;13.80;99.90;;;;;;5101216;28;22253;-82
2023/10/08 08:11:17;;;;;;;11.95;2.13;;;13.90;99.90;;;;;;5115709;28;20035;-82
2023/10/08 08:13:44;;;;;;;8.20;2.33;;;14.00;99.90;;;;;;5095335;28;20039;-84
2023/10/08 08:16:18;;;;;;;9.73;2.15;;;14.10;99.90;;;;;;5104636;28;20143;-82
2023/10/08 08:18:54;;;;;;;12.57;2.85;;;14.00;99.90;;;;;;5107983;28;20036;-81
2023/10/08 08:21:23;;;;;;;16.63;2.60;;;14.10;99.90;;;;;;5125942;28;20052;-82
2023/10/08 08:23:49;;;;;;;12.02;2.53;;;14.20;99.90;;;;;;5117728;28;20074;-81
2023/10/08 08:26:40;;;;;;;16.27;2.97;;;15.00;99.90;;;;;;5110646;28;20044;-81
2023/10/08 08:29:15;;;;;;;12.02;2.10;;;14.40;99.90;;;;;;5088739;28;20042;-82
2023/10/08 08:31:46;;;;;;;12.30;2.38;;;14.30;99.90;;;;;;5109184;28;20048;-81
2023/10/08 08:34:19;;;;;;;17.27;2.40;;;14.60;99.90;;;;;;5093852;28;20040;-81
2023/10/08 08:36:48;;;;;;;12.50;2.50;;;14.40;99.90;;;;;;5073758;28;20433;-80
2023/10/08 08:39:39;;;;;;;9.95;2.30;;;14.40;99.90;;;;;;5087113;28;20099;-82
2023/10/08 08:42:04;;;;;;;16.35;2.72;;;14.40;99.90;;;;;;5091307;28;20059;-81
2023/10/08 08:44:32;;;;;;;12.55;2.83;;;14.40;99.90;;;;;;5094010;28;20056;-82
2023/10/08 08:47:04;;;;;;;9.02;2.08;;;14.40;99.90;;;;;;5127919;28;20074;-81
2023/10/08 08:49:34;;;;;;;7.97;2.22;;;14.40;99.90;;;;;;5105605;28;20099;-80
2023/10/08 08:52:00;;;;;;;14.07;2.33;;;14.50;99.90;;;;;;5104932;28;20072;-82
2023/10/08 08:54:30;;;;;;;15.73;2.40;;;14.50;99.90;;;;;;5119978;28;20036;-81
2023/10/08 08:57:13;;;;;;;7.07;2.08;;;14.50;99.90;;;;;;5095861;28;20064;-82
2023/10/08 08:59:59;;;;;;;15.07;2.58;;;14.60;99.90;;;;;;5110918;28;20040;-82
2023/10/08 09:02:24;;;;;;;12.75;2.20;;;14.60;99.90;;;;;;5095005;28;20040;-83
2023/10/08 09:04:50;;;;;;;11.80;2.20;;;14.50;99.90;;;;;;5094722;28;20097;-81
2023/10/08 09:07:21;;;;;;;10.80;2.10;;;14.60;99.90;;;;;;5107823;27;20117;-82
2023/10/08 09:09:49;;;;;;;8.73;2.50;;;14.60;99.90;;;;;;5067882;28;20093;-83
2023/10/08 09:12:17;;;;;;;16.50;2.78;;;14.70;99.90;;;;;;5094415;28;20056;-82
2023/10/08 09:14:45;;;;;;;7.38;1.83;;;14.80;99.90;;;;;;5111701;28;20047;-83
2023/10/08 09:17:15;;;;;;;7.43;2.05;;;14.70;99.90;;;;;;5095727;28;20097;-83
2023/10/08 09:19:40;;;;;;;8.57;2.08;;;15.30;99.90;;;;;;5105411;28;20047;-84
2023/10/08 09:22:07;;;;;;;6.85;2.10;;;14.90;99.90;;;;;;5093546;28;20490;-82
2023/10/08 09:24:36;;;;;;;8.27;2.13;;;15.10;99.90;;;;;;5104226;28;20044;-84
2023/10/08 09:27:08;;;;;;;12.43;2.28;;;15.10;99.90;;;;;;5086107;28;20048;-84
2023/10/08 09:29:39;;;;;;;8.52;1.98;;;15.10;99.90;;;;;;5095266;28;20036;-83
2023/10/08 09:32:07;;;;;;;9.43;2.20;;;15.20;99.90;;;;;;5100845;28;20048;-81
2023/10/08 09:34:33;;;;;;;11.77;2.33;;;15.30;99.90;;;;;;5096562;28;20109;-82
2023/10/08 09:37:03;;;;;;;18.77;2.42;;;15.30;99.90;;;;;;5116885;28;20075;-82
2023/10/08 09:39:35;;;;;;;15.25;2.65;;;15.20;99.90;;;;;;5102057;28;20055;-81
2023/10/08 09:42:06;;;;;;;18.35;2.47;;;15.30;99.90;;;;;;5096845;28;20119;-81
2023/10/08 09:44:32;;;;;;;12.48;2.10;;;15.40;99.90;;;;;;5105762;28;20508;-80
2023/10/08 09:47:06;;;;;;;13.68;2.13;;;15.40;99.90;;;;;;5090619;28;20036;-81
2023/10/08 09:49:38;;;;;;;15.38;2.72;;;15.50;99.90;;;;;;5084681;28;20040;-82
2023/10/08 09:52:06;;;;;;;8.55;1.83;;;15.50;99.90;;;;;;5104886;28;20405;-81
2023/10/08 09:54:49;;;;;;;;;;;16.00;99.90;;;;;;5101996;28;20048;-78
2023/10/08 09:57:18;;;;;;;7.90;2.10;;;15.60;99.90;;;;;;5083866;28;19920;-83
2023/10/08 09:59:46;;;;;;;13.60;2.33;;;15.60;99.90;;;;;;5082559;28;20052;-82
2023/10/08 10:02:12;;;;;;;9.40;2.25;;;15.50;99.90;;;;;;5086127;28;20036;-82
2023/10/08 10:04:44;;;;;;;14.10;2.13;;;15.60;99.90;;;;;;5097436;28;20136;-82
2023/10/08 10:07:16;;;;;;;16.90;8.48;;;15.50;99.90;;;;;;5086848;28;20110;-82
2023/10/08 10:09:46;;;;;;;11.77;1.85;;;15.50;99.90;;;;;;5103618;28;20039;-83
2023/10/08 10:12:17;;;;;;;7.53;1.73;;;15.60;99.90;;;;;;5105789;28;20055;-81
2023/10/08 10:14:45;;;;;;;10.35;1.88;;;15.60;99.90;;;;;;5105913;28;20043;-82
2023/10/08 10:17:15;;;;;;;;;;;15.60;99.90;;;;;;5093229;28;20051;-84
2023/10/08 10:19:45;;;;;;;10.55;1.95;;;15.60;99.90;;;;;;5104182;28;20318;-86
2023/10/08 10:22:27;;;;;;;7.85;2.30;;;15.60;99.90;;;;;;5089751;28;20037;-85
2023/10/08 10:24:53;;;;;;;9.32;2.55;;;15.60;99.90;;;;;;5093165;28;20075;-85
2023/10/08 10:27:19;;;;;;;10.75;2.00;;;15.50;99.90;;;;;;5135174;27;20582;-84
2023/10/08 10:29:48;;;;;;;28.30;2.95;;;15.50;99.90;;;;;;5082130;28;20037;-82
2023/10/08 10:32:15;;;;;;;14.13;3.65;;;15.70;99.90;;;;;;5085212;28;20119;-83
2023/10/08 10:34:53;;;;;;;7.20;2.05;;;15.90;99.90;;;;;;5091822;28;20079;-85
2023/10/08 10:37:19;;;;;;;10.40;2.30;;;15.90;99.90;;;;;;5084472;28;20105;-83
2023/10/08 10:40:00;;;;;;;8.93;2.03;;;15.90;99.90;;;;;;5104716;28;20047;-84
2023/10/08 10:42:28;;;;;;;9.50;2.05;;;15.90;99.90;;;;;;5086666;28;20066;-86
2023/10/08 10:45:09;;;;;;;9.55;2.03;;;15.70;99.90;;;;;;5076416;28;20044;-85
2023/10/08 10:47:43;;;;;;;10.25;2.10;;;15.90;99.90;;;;;;5104720;28;20044;-83
2023/10/08 10:50:26;;;;;;;10.68;2.00;;;15.90;99.90;;;;;;5101186;28;20114;-81
2023/10/08 10:52:55;;;;;;;9.48;1.90;;;15.90;99.90;;;;;;5086094;28;20097;-84
2023/10/08 10:55:24;;;;;;;13.88;2.10;;;16.00;99.90;;;;;;5090675;28;20064;-83
2023/10/08 10:58:03;;;;;;;5.78;1.67;;;16.30;99.90;;;;;;5081018;28;20058;-83
2023/10/08 11:03:02;;;;;;;10.55;2.20;;;16.40;99.90;;;;;;5092840;28;20047;-80
2023/10/08 11:05:37;;;;;;;10.45;2.20;;;16.20;99.90;;;;;;5078703;28;20118;-84
2023/10/08 11:08:07;;;;;;;8.68;2.22;;;16.10;99.90;;;;;;5094026;28;20055;-82
2023/10/08 11:10:34;;;;;;;14.02;3.70;;;16.10;99.90;;;;;;5120425;28;20019;-83
2023/10/08 11:13:01;;;;;;;13.40;2.38;;;16.10;99.90;;;;;;5105999;28;20052;-82
2023/10/08 11:15:40;;;;;;;10.82;2.33;;;16.10;99.90;;;;;;5109609;28;20024;-82
2023/10/08 11:18:15;;;;;;;6.97;1.63;;;16.10;99.90;;;;;;5097684;28;20104;-80
2023/10/08 11:20:44;;;;;;;10.77;1.92;;;16.20;99.90;;;;;;5065054;28;20043;-81
2023/10/08 11:23:29;;;;;;;11.25;2.42;;;16.20;99.90;;;;;;5105927;28;20040;-81
2023/10/08 11:26:03;;;;;;;7.53;1.70;;;16.30;99.90;;;;;;5098096;28;20029;-81
2023/10/08 11:28:41;;;;;;;11.95;2.65;;;16.30;99.90;;;;;;5098050;28;20024;-82
2023/10/08 11:31:10;;;;;;;18.05;3.45;;;16.30;99.90;;;;;;5128123;28;20048;-83
2023/10/08 11:33:41;;;;;;;8.13;2.05;;;16.40;99.90;;;;;;5129039;28;20046;-82
2023/10/08 11:36:19;;;;;;;13.40;2.83;;;16.40;99.90;;;;;;5085802;28;20078;-82
2023/10/08 11:38:53;;;;;;;12.93;2.38;;;16.50;99.90;;;;;;5082650;28;20063;-82
2023/10/08 11:41:22;;;;;;;8.48;1.75;;;16.60;99.90;;;;;;5103556;28;20059;-83
2023/10/08 11:43:58;;;;;;;9.40;2.13;;;16.70;99.90;;;;;;5081849;28;20060;-82
2023/10/08 11:46:38;;;;;;;8.80;1.88;;;16.80;99.90;;;;;;5101705;28;20044;-82
2023/10/08 11:49:05;;;;;;;6.53;1.75;;;16.80;99.90;;;;;;5099126;28;20472;-82
2023/10/08 11:51:40;;;;;;;12.85;2.17;;;16.90;99.90;;;;;;5115548;28;20123;-82
2023/10/08 11:54:05;;;;;;;16.60;3.13;;;16.80;99.90;;;;;;5082532;28;20051;-82
2023/10/08 11:56:33;;;;;;;13.43;2.30;;;16.80;99.90;;;;;;5079881;28;20041;-82
2023/10/08 11:59:01;;;;;;;7.75;2.40;;;16.60;99.90;;;;;;5068587;28;20082;-82
2023/10/08 12:01:27;;;;;;;8.73;2.83;;;16.70;99.90;;;;;;5097976;28;20119;-83
2023/10/08 12:03:59;;;;;;;5.07;1.83;;;16.70;99.90;;;;;;5094578;28;20044;-83
2023/10/08 12:06:29;;;;;;;11.82;2.20;;;16.60;99.90;;;;;;5107192;28;20048;-83
2023/10/08 12:08:58;;;;;;;13.18;2.35;;;16.70;99.90;;;;;;5082319;28;20489;-82
2023/10/08 12:11:34;;;;;;;12.05;2.00;;;16.80;99.90;;;;;;5099076;28;20061;-82
2023/10/08 12:13:59;;;;;;;8.52;1.83;;;16.90;99.90;;;;;;5088795;28;20100;-82
2023/10/08 12:16:29;;;;;;;9.35;2.13;;;17.00;99.90;;;;;;5102703;28;20494;-82
2023/10/08 12:18:59;;;;;;;10.15;2.00;;;17.10;99.90;;;;;;5085074;28;20047;-83
2023/10/08 12:21:31;;;;;;;8.05;2.30;;;17.10;99.90;;;;;;5076272;28;20416;-82
2023/10/08 12:23:58;;;;;;;8.00;1.95;;;17.10;99.90;;;;;;5091515;28;20056;-82
2023/10/08 12:26:25;;;;;;;10.60;2.15;;;17.00;99.90;;;;;;5092359;28;20037;-82
2023/10/08 12:28:53;;;;;;;9.00;2.30;;;17.00;99.90;;;;;;5101235;28;20036;-83
2023/10/08 12:31:23;;;;;;;10.10;1.98;;;17.00;99.90;;;;;;5104121;28;20048;-83
2023/10/08 12:34:00;;;;;;;7.35;2.05;;;17.10;99.90;;;;;;5087331;28;20052;-83
2023/10/08 12:36:33;;;;;;;8.07;2.20;;;17.00;99.90;;;;;;5118883;28;20477;-83
2023/10/08 12:38:59;;;;;;;7.05;2.35;;;16.90;99.90;;;;;;5102070;28;20123;-82
2023/10/08 12:41:28;;;;;;;8.70;1.98;;;16.90;99.90;;;;;;5087201;28;20036;-83
2023/10/08 12:43:58;;;;;;;10.27;1.92;;;16.90;99.90;;;;;;5075511;28;20094;-83
2023/10/08 12:46:26;;;;;;;12.93;2.80;;;16.90;99.90;;;;;;5085162;28;20048;-83
2023/10/08 12:48:54;;;;;;;18.00;2.40;;;16.80;99.90;;;;;;5086048;28;21224;-82
2023/10/08 12:51:23;;;;;;;7.28;2.35;;;16.70;99.90;;;;;;5111098;28;20036;-82
2023/10/08 12:53:55;;;;;;;10.95;2.03;;;16.70;99.90;;;;;;5106188;28;20065;-84
2023/10/08 12:56:31;;;;;;;12.02;3.05;;;16.60;99.90;;;;;;5097746;28;20048;-83
2023/10/08 12:58:58;;;;;;;5.93;2.10;;;16.60;99.90;;;;;;5107081;28;20044;-81
2023/10/08 13:01:28;;;;;;;11.93;2.33;;;16.60;99.90;;;;;;5106860;28;20041;-81
2023/10/08 13:03:59;;;;;;;10.57;2.30;;;16.60;99.90;;;;;;5094298;28;20041;-83
2023/10/08 13:06:28;;;;;;;9.55;1.92;;;16.60;99.90;;;;;;5112086;28;20055;-84
2023/10/08 13:09:00;;;;;;;10.80;2.15;;;16.60;99.90;;;;;;5082315;28;20036;-82
2023/10/08 13:11:29;;;;;;;9.27;2.10;;;16.60;99.90;;;;;;5085635;28;20047;-83
2023/10/08 13:13:56;;;;;;;9.25;2.03;;;16.60;99.90;;;;;;5092545;28;20044;-83
2023/10/08 13:16:24;;;;;;;6.20;2.03;;;16.60;99.90;;;;;;5102475;28;20143;-83
2023/10/08 13:18:56;;;;;;;6.43;1.60;;;16.60;99.90;;;;;;5102493;28;20044;-84
2023/10/08 13:21:24;;;;;;;9.43;2.17;;;16.60;99.90;;;;;;5092220;28;20124;-84
2023/10/08 13:23:53;;;;;;;9.15;2.25;;;16.70;99.90;;;;;;5085995;28;20097;-83
2023/10/08 13:26:24;;;;;;;11.95;2.45;;;16.60;99.90;;;;;;5101112;28;20071;-82
2023/10/08 13:28:54;;;;;;;16.45;2.50;;;16.80;99.90;;;;;;5105280;28;20032;-82
2023/10/08 13:31:19;;;;;;;11.40;2.33;;;16.80;99.90;;;;;;5105411;28;20061;-84
2023/10/08 13:33:48;;;;;;;6.43;1.60;;;16.80;99.90;;;;;;5095182;28;20048;-82
2023/10/08 13:36:16;;;;;;;8.02;1.83;;;16.90;99.90;;;;;;5093433;28;20044;-83
2023/10/08 13:38:51;;;;;;;8.95;1.90;;;16.90;99.90;;;;;;5097211;28;20052;-82
2023/10/08 13:41:20;;;;;;;5.43;1.75;;;16.80;99.90;;;;;;5118184;28;20090;-84
2023/10/08 13:43:47;;;;;;;10.80;2.15;;;17.00;99.90;;;;;;5096783;28;20036;-82
2023/10/08 13:46:18;;;;;;;9.55;2.17;;;16.90;99.90;;;;;;5100306;28;20086;-84
2023/10/08 13:48:50;;;;;;;10.43;2.20;;;16.90;99.90;;;;;;5100693;28;20090;-82
2023/10/08 13:51:23;;;;;;;9.88;2.20;;;16.90;99.90;;;;;;5098642;28;20040;-83
2023/10/08 13:53:59;;;;;;;8.60;2.38;;;16.80;99.90;;;;;;5085114;28;20044;-82
2023/10/08 13:56:26;;;;;;;10.75;1.98;;;16.80;99.90;;;;;;5086991;28;20052;-82
2023/10/08 13:59:03;;;;;;;13.23;2.88;;;16.70;99.90;;;;;;5100032;28;20512;-83
2023/10/08 14:01:33;;;;;;;10.20;2.30;;;16.60;99.90;;;;;;5093024;28;20071;-83
2023/10/08 14:04:05;;;;;;;6.80;1.85;;;16.50;99.90;;;;;;5086544;28;20040;-84
2023/10/08 14:06:37;;;;;;;11.27;2.80;;;16.40;99.90;;;;;;5099798;28;20069;-83
2023/10/08 14:09:12;;;;;;;8.00;2.10;;;16.40;99.90;;;;;;5093569;28;20533;-83
2023/10/08 14:11:39;;;;;;;13.20;2.22;;;16.30;99.90;;;;;;5054965;28;20048;-82
2023/10/08 14:14:07;;;;;;;6.87;1.90;;;16.30;99.90;;;;;;5079209;28;20047;-82